EGNT

Newcastle Airport

Newcastle, United Kingdom
METAR EGNT 231050Z 21013KT 180V240 9999 SCT024 12/08 Q1001
Observed Flight Rules
Jan-23 @ 10:50 UTC (56 minutes ago) Visual Flight Rules
Wind Visibility Clouds
210° at 13 knots 10,000+ meters
  • Scattered at 2,400' AGL
Temperatures Readings
Current 12°C / 54°F
Dewpoint 8°C / 46°F
Humidity 77%
Altimeter 29.56" Hg
Pressure 1001 hPa
Elevation 81
METAR EGNT 231050Z 21013KT 180V240 9999 SCT024 12/08 Q1001
Observed Flight Rules
Jan-23 @ 10:50 UTC
(56 minutes ago)
VFR
Wind Visibility
210° at 13 knots 10,000+ meters
Clouds
  • Scattered at 2,400' AGL
Temperature Dewpoint
12°C / 54°F 8°C / 46°F
Humidity Altimeter Pressure
77% 29.56" Hg 1001 hPa